Westport, CA (95488)

4:57 AM PST on December 22, 2014 (GMT -0800)
MAP LEGGETT (P315) CA PSD | Change Station
CLOSE
Current Station
Personal Weather Station
Location: Leggett, CA
Elevation: 846 ft
Nearby Weather Stations
Active Advisory: Coastal Flood Advisory Active Notice: Record Report

Elev 846 ft 39.86 °N, 123.72 °W | Updated 57 minutes ago

Partly Cloudy
Partly Cloudy
54 °F
Feels Like 54 °F
N
2
Wind Variable Wind from NNW
Gusts 0.0 mph

Today
High -- | Low -- °F
--% Chance of Precip.
Yesterday
High -- | Low -- °F
Precip. -- in
7:32 AM 4:54 PM
New Moon, 0% visible
Pressure 30.29 in
Visibility 10.0 miles
Clouds Few 5500 ft
Dew Point 53 °F
Humidity 95%
Rainfall -999.00 in
Snow Depth Not available.
UV 0 out of 12
Pollen 3.80 out of 12
Air Quality Not available.
Flu Activity Not available.
METAR KUKI 221156Z AUTO 00000KT 10SM FEW055 10/09 A3029 RMK AO2 SLP255 70005 T01000089 10122 20100 58008

More Conditions Fewer Conditions

Pressure 30.29 in
Visibility 10.0 miles
Clouds Few 5500 ft
Dew Point 53 °F
Humidity 95%
Rainfall -999.00 in
Snow Depth Not available.
UV 0 out of 12
Pollen 3.80 out of 12
Air Quality Not available.
Flu Activity Not available.
METAR KUKI 221156Z AUTO 00000KT 10SM FEW055 10/09 A3029 RMK AO2 SLP255 70005 T01000089 10122 20100 58008

More Conditions Fewer Conditions

10-Day Weather Forecast

Almanac

Astronomy

Dec. 22, 2014 Rise Set
Actual Time
Civil Twilight
Nautical Twilight
Astronomical Twilight
Moon
Length of Visible Light
Length of Day
Tomorrow will be .
, % of the Moon is Illuminated

Today's Extremes

State Highs State Lows

Community

WunderPhotos

Upload Photos

1,779,598 photos uploaded!

WunderBlogs® & News

Nearby

Air Quality

  Air Quality AQ Index Pollutant
Not available.

Snow Depth

Station Depth Elevation

Earthquake Activity

City Distance Mag. Time & Date
Minimum magnitude displayed is 2.5.

Coastal Water Temperatures

Place Temperature

Nearby Weather Stations